createdAt,value
2022-09-26T00:03:02.703Z,3.03
2022-09-26T00:08:05.301Z,3.47
2022-09-26T00:13:07.877Z,5.97
2022-09-26T00:18:09.562Z,3.23
2022-09-26T00:23:11.162Z,4.33
2022-09-26T00:28:12.724Z,2.60
2022-09-26T00:33:14.709Z,4.53
2022-09-26T00:38:16.229Z,4.20
2022-09-26T00:43:28.850Z,2.70
2022-09-26T00:48:31.785Z,2.40
2022-09-26T00:53:37.193Z,2.60
2022-09-26T00:58:48.614Z,2.90
2022-09-26T01:03:50.777Z,2.40
2022-09-26T01:09:08.761Z,2.77
2022-09-26T01:14:12.266Z,3.07
2022-09-26T01:19:38.954Z,4.17
2022-09-26T01:25:08.761Z,2.77
2022-09-26T01:30:12.867Z,3.77
2022-09-26T01:35:48.094Z,2.43
2022-09-26T01:41:09.641Z,5.30
2022-09-26T01:46:30.925Z,2.60
2022-09-26T01:52:19.425Z,2.47
2022-09-26T01:57:28.441Z,4.30
2022-09-26T02:02:34.763Z,3.70
2022-09-26T02:07:45.105Z,3.80
2022-09-26T02:12:54.847Z,2.37
2022-09-26T02:18:03.024Z,3.53
2022-09-26T02:23:04.704Z,2.50
2022-09-26T02:28:06.297Z,5.57
2022-09-26T02:33:08.097Z,3.67
2022-09-26T02:38:10.131Z,3.27
2022-09-26T02:43:37.732Z,4.03
2022-09-26T02:48:51.038Z,2.10
2022-09-26T02:53:58.718Z,2.50
2022-09-26T02:59:23.361Z,3.40
2022-09-26T03:04:49.012Z,2.33
2022-09-26T03:09:51.786Z,3.20
2022-09-26T03:14:58.423Z,3.73
2022-09-26T03:20:14.824Z,4.27
2022-09-26T03:25:20.352Z,3.60
2022-09-26T03:30:32.615Z,2.40
2022-09-26T03:36:00.581Z,2.47
2022-09-26T03:41:02.765Z,3.23
2022-09-26T03:46:19.671Z,3.67
2022-09-26T03:51:23.024Z,2.90
2022-09-26T03:56:26.934Z,3.47
2022-09-26T04:01:28.775Z,2.70
2022-09-26T04:06:30.678Z,2.60
2022-09-26T04:11:35.860Z,3.27
2022-09-26T04:16:38.506Z,2.97
2022-09-26T04:21:52.411Z,3.30
2022-09-26T04:26:55.792Z,3.70
2022-09-26T04:31:59.419Z,6.13
2022-09-26T04:37:10.165Z,3.90
2022-09-26T04:42:11.894Z,4.10
2022-09-26T04:47:13.437Z,5.10
2022-09-26T04:52:37.646Z,4.10
2022-09-26T04:57:40.001Z,4.27
2022-09-26T05:02:42.684Z,4.13
2022-09-26T05:07:44.961Z,5.73
2022-09-26T05:12:46.754Z,4.50
2022-09-26T05:17:49.204Z,3.90
2022-09-26T05:22:51.195Z,3.73
2022-09-26T05:27:53.524Z,5.93
2022-09-26T05:32:55.993Z,4.27
2022-09-26T05:38:03.132Z,5.00
2022-09-26T05:43:06.982Z,4.57
2022-09-26T05:48:08.855Z,6.57
2022-09-26T05:53:13.063Z,5.27
2022-09-26T05:58:15.491Z,4.03
2022-09-26T06:03:36.286Z,4.00
2022-09-26T06:08:43.856Z,4.60
2022-09-26T06:13:59.283Z,7.87
2022-09-26T06:19:02.551Z,4.70
2022-09-26T06:24:06.320Z,4.60
2022-09-26T06:29:10.243Z,5.70
2022-09-26T06:34:14.690Z,5.07
2022-09-26T06:39:39.148Z,3.63
2022-09-26T06:44:41.883Z,3.67
2022-09-26T06:50:03.502Z,3.57
2022-09-26T06:55:10.226Z,5.00
2022-09-26T07:00:14.487Z,4.33
2022-09-26T07:05:35.048Z,2.60
2022-09-26T07:10:37.761Z,3.53
2022-09-26T07:15:46.720Z,3.43
2022-09-26T07:21:09.175Z,4.37
2022-09-26T07:26:22.668Z,2.90
2022-09-26T07:31:24.262Z,2.67
2022-09-26T07:36:48.710Z,2.10
2022-09-26T07:41:50.483Z,2.70
2022-09-26T07:47:10.397Z,3.13
2022-09-26T07:52:12.112Z,1.83
2022-09-26T07:57:42.847Z,2.47
2022-09-26T08:03:00.958Z,2.07
2022-09-26T08:08:04.868Z,1.90
2022-09-26T08:13:38.868Z,3.87
2022-09-26T08:19:01.735Z,1.73
2022-09-26T08:24:03.913Z,1.80
2022-09-26T08:29:32.240Z,2.57
2022-09-26T08:34:35.165Z,2.60
2022-09-26T08:39:55.457Z,1.50
2022-09-26T08:46:10.246Z,1.57
2022-09-26T08:51:41.116Z,1.10
2022-09-26T08:56:52.842Z,1.73
2022-09-26T09:01:59.750Z,1.67
2022-09-26T09:07:14.971Z,1.67
2022-09-26T09:12:32.246Z,1.37
2022-09-26T09:18:22.631Z,0.80
2022-09-26T09:23:57.323Z,1.00
2022-09-26T09:29:19.590Z,1.53
2022-09-26T09:34:42.871Z,1.80
2022-09-26T09:40:03.858Z,1.60
2022-09-26T09:45:20.500Z,1.30
2022-09-26T09:50:43.932Z,1.90
2022-09-26T09:55:48.946Z,4.27
2022-09-26T10:01:03.315Z,1.70
2022-09-26T10:06:46.503Z,1.90
2022-09-26T10:11:42.446Z,3.50
2022-09-26T10:17:11.345Z,1.80
2022-09-26T10:22:26.800Z,2.10
2022-09-26T10:27:35.375Z,1.80
2022-09-26T10:32:45.779Z,2.93
2022-09-26T10:38:18.622Z,2.20
2022-09-26T10:43:31.837Z,2.00
2022-09-26T10:48:56.905Z,3.97
2022-09-26T10:54:41.785Z,1.77
2022-09-26T10:59:43.445Z,2.03
2022-09-26T11:05:04.629Z,2.00
2022-09-26T11:10:25.010Z,1.93
2022-09-26T11:16:07.462Z,1.70
2022-09-26T11:21:35.159Z,2.20
2022-09-26T11:26:49.578Z,3.57
2022-09-26T11:31:51.173Z,1.70
2022-09-26T11:37:11.033Z,1.77
2022-09-26T11:42:43.858Z,1.80
2022-09-26T11:48:13.074Z,1.80
2022-09-26T11:53:46.332Z,1.43
2022-09-26T11:58:59.180Z,1.40
2022-09-26T12:04:13.997Z,2.00
2022-09-26T12:09:26.704Z,2.17
2022-09-26T12:14:39.408Z,1.83
2022-09-26T12:19:55.787Z,1.27
2022-09-26T12:25:13.767Z,2.07
2022-09-26T12:30:41.719Z,2.50
2022-09-26T12:36:05.369Z,1.47
2022-09-26T12:41:15.851Z,1.17
2022-09-26T12:46:27.671Z,1.03
2022-09-26T12:51:52.156Z,1.17
2022-09-26T12:57:05.440Z,1.27
2022-09-26T13:02:12.896Z,2.10
2022-09-26T13:07:35.010Z,1.07
2022-09-26T13:13:03.302Z,1.53
2022-09-26T13:18:10.869Z,1.37
2022-09-26T13:23:20.133Z,0.93
2022-09-26T13:29:15.680Z,1.93
2022-09-26T13:34:22.840Z,1.47
2022-09-26T13:39:45.145Z,2.23
2022-09-26T13:44:59.753Z,1.77
2022-09-26T13:50:24.256Z,1.43
2022-09-26T13:55:27.594Z,2.13
2022-09-26T14:00:34.729Z,1.63
2022-09-26T14:05:43.221Z,2.20
2022-09-26T14:10:53.298Z,1.77
2022-09-26T14:15:57.720Z,1.60
2022-09-26T14:21:07.223Z,1.73
2022-09-26T14:26:28.089Z,1.60
2022-09-26T14:31:38.665Z,1.30
2022-09-26T14:36:40.982Z,1.33
2022-09-26T14:41:42.754Z,3.20
2022-09-26T14:46:44.720Z,2.00
2022-09-26T14:51:48.972Z,1.90
2022-09-26T14:56:59.782Z,1.40
2022-09-26T15:02:18.497Z,1.83
2022-09-26T15:07:22.543Z,1.60
2022-09-26T15:12:45.117Z,1.53
2022-09-26T15:17:53.432Z,1.30
2022-09-26T15:22:57.269Z,1.50
2022-09-26T15:27:59.653Z,1.50
2022-09-26T15:33:05.595Z,1.60
2022-09-26T15:38:12.115Z,1.40
2022-09-26T15:43:20.603Z,2.47
2022-09-26T15:48:24.729Z,3.93
2022-09-26T15:53:40.977Z,1.77
2022-09-26T15:58:47.095Z,2.00
2022-09-26T16:03:55.502Z,2.60
2022-09-26T16:09:01.072Z,4.13
2022-09-26T16:14:02.638Z,1.83
2022-09-26T16:19:05.187Z,2.43
2022-09-26T16:24:29.597Z,3.13
2022-09-26T16:29:35.731Z,1.90
2022-09-26T16:34:37.284Z,2.40
2022-09-26T16:39:39.886Z,3.17
2022-09-26T16:44:42.576Z,4.07
2022-09-26T16:49:48.452Z,3.17
2022-09-26T16:54:51.604Z,1.93
2022-09-26T16:59:53.582Z,2.13
2022-09-26T17:04:55.390Z,4.27
2022-09-26T17:09:57.259Z,2.80
2022-09-26T17:15:00.684Z,4.33
2022-09-26T17:20:03.323Z,2.10
2022-09-26T17:25:05.415Z,3.55
2022-09-26T17:30:15.146Z,1.80
2022-09-26T17:35:22.227Z,1.67
2022-09-26T17:40:26.259Z,2.13
2022-09-26T17:45:30.659Z,2.63
2022-09-26T17:50:33.475Z,3.20
2022-09-26T17:55:35.542Z,3.87
2022-09-26T18:00:40.215Z,2.30
2022-09-26T18:05:42.321Z,2.03
2022-09-26T18:10:54.918Z,4.87
2022-09-26T18:15:58.718Z,3.53
2022-09-26T18:21:03.969Z,3.00
2022-09-26T18:26:08.019Z,2.43
2022-09-26T18:31:11.198Z,2.60
2022-09-26T18:36:13.073Z,2.37
2022-09-26T18:41:16.926Z,2.83
2022-09-26T18:46:19.060Z,4.97
2022-09-26T18:51:20.787Z,4.07
2022-09-26T18:56:40.993Z,3.43
2022-09-26T19:01:43.280Z,2.40
2022-09-26T19:06:47.397Z,2.17
2022-09-26T19:11:49.156Z,2.03
2022-09-26T19:16:51.455Z,2.00
2022-09-26T19:21:55.495Z,2.63
2022-09-26T19:27:15.601Z,2.00
2022-09-26T19:32:44.567Z,2.00
2022-09-26T19:37:46.139Z,1.80
2022-09-26T19:42:47.676Z,2.43
2022-09-26T19:47:53.931Z,1.40
2022-09-26T19:52:56.798Z,1.70
2022-09-26T19:58:07.143Z,2.43
2022-09-26T20:03:19.254Z,1.97
2022-09-26T20:08:23.072Z,1.93
2022-09-26T20:13:24.675Z,1.67
2022-09-26T20:18:26.214Z,1.40
2022-09-26T20:23:27.991Z,1.30
2022-09-26T20:28:29.551Z,1.10
2022-09-26T20:33:31.401Z,1.37
2022-09-26T20:38:45.427Z,1.00
2022-09-26T20:43:49.230Z,1.03
2022-09-26T20:48:51.252Z,1.10
2022-09-26T20:53:53.024Z,0.90
2022-09-26T20:58:54.974Z,0.93
2022-09-26T21:03:56.912Z,1.07
2022-09-26T21:08:58.832Z,1.47
2022-09-26T21:14:00.486Z,2.97
2022-09-26T21:19:02.034Z,2.03
2022-09-26T21:24:03.821Z,1.23
2022-09-26T21:29:06.516Z,1.30
2022-09-26T21:34:25.113Z,1.00
2022-09-26T21:39:27.770Z,1.60
2022-09-26T21:44:37.092Z,1.57
2022-09-26T21:49:38.556Z,1.30
2022-09-26T21:54:43.130Z,1.30
2022-09-26T21:59:45.037Z,1.33
2022-09-26T22:04:47.829Z,1.20
2022-09-26T22:09:49.574Z,2.37
2022-09-26T22:14:51.069Z,1.20
2022-09-26T22:19:53.171Z,1.80
2022-09-26T22:24:54.863Z,2.47
2022-09-26T22:29:56.597Z,2.17
2022-09-26T22:34:58.353Z,4.73
2022-09-26T22:39:59.981Z,1.90
2022-09-26T22:45:02.312Z,2.33
2022-09-26T22:50:04.334Z,2.60
2022-09-26T22:55:06.492Z,3.27
2022-09-26T23:00:08.828Z,3.37
2022-09-26T23:05:10.636Z,4.23
2022-09-26T23:10:13.378Z,6.53
2022-09-26T23:15:15.236Z,3.47
2022-09-26T23:20:17.050Z,6.33
2022-09-26T23:25:18.573Z,3.40
2022-09-26T23:30:20.183Z,3.33
2022-09-26T23:35:21.773Z,6.77
2022-09-26T23:40:23.419Z,3.83
2022-09-26T23:45:25.308Z,2.97
2022-09-26T23:50:27.422Z,4.60
2022-09-26T23:55:28.948Z,4.17
